createdAt,value
2018-09-23T18:46:19.455Z,3.67
2018-09-23T18:48:47.050Z,3.87
2018-09-23T18:53:04.485Z,2.90
2018-09-23T18:55:37.225Z,2.90
2018-09-23T18:58:04.793Z,4.67
2018-09-23T19:00:32.231Z,7.30
2018-09-23T19:02:59.910Z,2.63
2018-09-23T19:05:27.560Z,2.03
2018-09-23T19:07:55.069Z,3.67
2018-09-23T19:10:22.507Z,3.27
2018-09-23T19:12:55.432Z,3.80
2018-09-23T19:15:23.020Z,1.90
2018-09-23T19:17:50.601Z,2.20
2018-09-23T19:20:18.441Z,2.63
2018-09-23T19:22:51.261Z,3.00
2018-09-23T19:25:18.892Z,1.83
2018-09-23T19:27:46.357Z,2.37
2018-09-23T19:30:13.877Z,1.40
2018-09-23T19:32:41.498Z,2.63
2018-09-23T19:35:09.397Z,1.60
2018-09-23T19:37:37.209Z,2.47
2018-09-23T19:40:04.746Z,2.30
2018-09-23T19:42:32.297Z,2.17
2018-09-23T19:45:00.007Z,2.00
2018-09-23T19:47:27.515Z,2.10
2018-09-23T19:49:54.884Z,2.60
2018-09-23T19:52:22.294Z,1.70
2018-09-23T19:54:50.049Z,1.73
2018-09-23T19:57:17.605Z,2.13
2018-09-23T19:59:45.192Z,1.97
2018-09-23T20:02:12.692Z,2.40
2018-09-23T20:04:40.148Z,2.23
2018-09-23T20:07:07.677Z,2.10
2018-09-23T20:09:35.146Z,2.60
2018-09-23T20:12:02.885Z,2.50
2018-09-23T20:14:30.398Z,2.73
2018-09-23T20:16:57.881Z,2.87
2018-09-23T20:19:25.357Z,3.33
2018-09-23T20:21:52.769Z,2.70
2018-09-23T20:24:20.294Z,2.60
2018-09-23T20:26:47.965Z,2.87
2018-09-23T20:29:15.337Z,3.10
2018-09-23T20:31:42.805Z,3.77
2018-09-23T20:34:10.158Z,3.47
2018-09-23T20:36:37.561Z,2.80
2018-09-23T20:39:06.429Z,3.40
2018-09-23T20:41:33.901Z,2.17
2018-09-23T20:44:01.376Z,2.33
2018-09-23T20:46:28.912Z,2.47
2018-09-23T20:48:56.386Z,2.40
2018-09-23T20:51:24.057Z,2.17
2018-09-23T20:53:51.627Z,2.33
2018-09-23T20:56:19.022Z,2.27
2018-09-23T20:58:46.558Z,2.07
2018-09-23T21:01:14.053Z,2.17
2018-09-23T21:03:41.482Z,2.43
2018-09-23T21:06:08.923Z,2.20
2018-09-23T21:08:36.401Z,2.57
2018-09-23T21:11:03.857Z,2.30
2018-09-23T21:13:31.323Z,2.97
2018-09-23T21:15:58.792Z,2.30
2018-09-23T21:18:26.222Z,2.60
2018-09-23T21:20:53.667Z,2.23
2018-09-23T21:23:21.168Z,2.10
2018-09-23T21:25:48.593Z,2.57
2018-09-23T21:28:16.165Z,2.00
2018-09-23T21:30:43.646Z,2.07
2018-09-23T21:33:11.196Z,2.27
2018-09-23T21:35:38.635Z,2.33
2018-09-23T21:38:06.193Z,1.80
2018-09-23T21:40:33.633Z,2.20
2018-09-23T21:43:01.008Z,1.63
2018-09-23T21:45:28.478Z,1.83
2018-09-23T21:47:56.009Z,1.30
2018-09-23T21:50:23.437Z,1.80
2018-09-23T21:52:50.933Z,1.57
2018-09-23T21:55:18.378Z,1.57
2018-09-23T21:57:45.903Z,1.53
2018-09-23T22:00:13.493Z,1.60
2018-09-23T22:02:41.053Z,1.10
2018-09-23T22:05:08.661Z,1.40
2018-09-23T22:07:36.120Z,1.70
2018-09-23T22:10:03.688Z,1.63
2018-09-23T22:12:31.110Z,1.60
2018-09-23T22:14:58.536Z,1.53
2018-09-23T22:17:25.993Z,1.83
2018-09-23T22:19:53.465Z,1.47
2018-09-23T22:22:20.968Z,1.50
2018-09-23T22:24:48.366Z,1.77
2018-09-23T22:27:15.891Z,1.00
2018-09-23T22:29:43.401Z,1.00
2018-09-23T22:32:10.877Z,0.87
2018-09-23T22:34:38.343Z,0.90
2018-09-23T22:37:05.774Z,1.30
2018-09-23T22:39:33.184Z,0.80
2018-09-23T22:42:00.657Z,0.70
2018-09-23T22:44:28.121Z,0.70
2018-09-23T22:46:55.572Z,0.63
2018-09-23T22:49:23.049Z,0.63
2018-09-23T22:51:50.515Z,0.70
2018-09-23T22:54:17.989Z,0.50
2018-09-23T22:56:45.433Z,0.70
2018-09-23T22:59:12.888Z,0.60
2018-09-23T23:01:40.396Z,0.80
2018-09-23T23:04:07.884Z,0.60
2018-09-23T23:06:35.337Z,0.60
2018-09-23T23:09:02.999Z,0.57
2018-09-23T23:11:30.488Z,0.80
2018-09-23T23:13:57.921Z,0.70
2018-09-23T23:16:25.314Z,0.50
2018-09-23T23:18:52.706Z,0.60
2018-09-23T23:21:20.142Z,0.77
2018-09-23T23:23:47.520Z,0.70
2018-09-23T23:26:15.054Z,0.70
2018-09-23T23:28:42.485Z,0.50
2018-09-23T23:31:09.977Z,0.67
2018-09-23T23:33:37.389Z,0.90
2018-09-23T23:36:04.779Z,0.83
2018-09-23T23:38:32.169Z,0.90
2018-09-23T23:40:59.567Z,0.77
2018-09-23T23:43:26.969Z,0.73
2018-09-23T23:45:54.449Z,0.87
2018-09-23T23:48:21.839Z,0.80
2018-09-23T23:50:49.228Z,0.73
2018-09-23T23:53:16.581Z,0.70
2018-09-23T23:55:43.937Z,0.90
2018-09-23T23:58:12.220Z,1.00
